createdAt,value
2022-10-03T00:00:24.878Z,100.00
2022-10-03T00:03:15.126Z,100.00
2022-10-03T00:06:03.478Z,100.00
2022-10-03T00:09:08.696Z,100.00
2022-10-03T00:11:52.935Z,100.00
2022-10-03T00:14:34.873Z,100.00
2022-10-03T00:17:15.543Z,100.00
2022-10-03T00:20:02.781Z,100.00
2022-10-03T00:22:51.577Z,100.00
2022-10-03T00:25:24.106Z,100.00
2022-10-03T00:28:16.216Z,100.00
2022-10-03T00:31:07.446Z,100.00
2022-10-03T00:33:48.091Z,100.00
2022-10-03T00:36:29.535Z,100.00
2022-10-03T00:39:27.702Z,100.00
2022-10-03T00:42:06.523Z,100.00
2022-10-03T00:45:16.880Z,100.00
2022-10-03T00:48:23.870Z,100.00
2022-10-03T00:51:17.824Z,100.00
2022-10-03T00:53:57.837Z,100.00
2022-10-03T00:56:42.782Z,100.00
2022-10-03T00:59:44.136Z,100.00
2022-10-03T01:02:39.784Z,100.00
2022-10-03T01:05:25.751Z,100.00
2022-10-03T01:08:09.161Z,100.00
2022-10-03T01:10:58.577Z,100.00
2022-10-03T01:14:08.119Z,100.00
2022-10-03T01:16:53.333Z,100.00
2022-10-03T01:19:59.236Z,100.00
2022-10-03T01:22:39.710Z,100.00
2022-10-03T01:25:19.693Z,100.00
2022-10-03T01:28:18.946Z,100.00
2022-10-03T01:31:00.192Z,100.00
2022-10-03T01:33:40.816Z,100.00
2022-10-03T01:36:39.910Z,100.00
2022-10-03T01:39:13.739Z,100.00
2022-10-03T01:41:52.140Z,100.00
2022-10-03T01:44:29.494Z,100.00
2022-10-03T01:47:09.905Z,100.00
2022-10-03T01:49:48.835Z,100.00
2022-10-03T01:52:28.105Z,100.00
2022-10-03T01:55:22.896Z,100.00
2022-10-03T01:58:05.403Z,100.00
2022-10-03T02:00:53.892Z,100.00
2022-10-03T02:03:30.341Z,100.00
2022-10-03T02:06:27.632Z,100.00
2022-10-03T02:09:18.061Z,100.00
2022-10-03T02:11:50.356Z,100.00
2022-10-03T02:14:28.934Z,100.00
2022-10-03T02:17:03.464Z,100.00
2022-10-03T02:19:42.271Z,100.00
2022-10-03T02:22:28.522Z,100.00
2022-10-03T02:25:15.787Z,100.00
2022-10-03T02:28:19.184Z,100.00
2022-10-03T02:31:33.787Z,100.00
2022-10-03T02:34:09.081Z,100.00
2022-10-03T02:36:56.938Z,100.00
2022-10-03T02:39:23.209Z,100.00
2022-10-03T02:41:58.542Z,100.00
2022-10-03T02:45:02.567Z,100.00
2022-10-03T02:47:42.899Z,100.00
2022-10-03T02:50:58.215Z,100.00
2022-10-03T02:53:42.959Z,100.00
2022-10-03T02:56:33.472Z,100.00
2022-10-03T02:59:26.072Z,100.00
2022-10-03T03:02:16.879Z,100.00
2022-10-03T03:04:58.574Z,100.00
2022-10-03T03:08:04.181Z,100.00
2022-10-03T03:11:03.876Z,100.00
2022-10-03T03:13:45.837Z,100.00
2022-10-03T03:16:41.205Z,100.00
2022-10-03T03:19:28.781Z,100.00
2022-10-03T03:22:10.045Z,100.00
2022-10-03T03:25:07.418Z,100.00
2022-10-03T03:28:00.183Z,100.00
2022-10-03T03:30:38.750Z,100.00
2022-10-03T03:33:38.857Z,100.00
2022-10-03T03:40:21.341Z,100.00
2022-10-03T03:43:11.811Z,100.00
2022-10-03T03:45:51.732Z,100.00
2022-10-03T03:48:39.958Z,100.00
2022-10-03T03:51:34.982Z,100.00
2022-10-03T03:54:19.553Z,100.00
2022-10-03T03:56:54.536Z,100.00
2022-10-03T03:59:30.057Z,100.00
2022-10-03T04:02:11.110Z,100.00
2022-10-03T04:05:04.806Z,100.00
2022-10-03T04:07:49.226Z,100.00
2022-10-03T04:10:29.697Z,100.00
2022-10-03T04:13:43.646Z,100.00
2022-10-03T04:16:20.487Z,100.00
2022-10-03T04:19:43.652Z,100.00
2022-10-03T04:22:51.883Z,100.00
2022-10-03T04:25:34.147Z,100.00
2022-10-03T04:28:10.783Z,100.00
2022-10-03T04:30:55.232Z,100.00
2022-10-03T04:33:43.254Z,100.00
2022-10-03T04:36:38.906Z,100.00
2022-10-03T04:39:40.346Z,100.00
2022-10-03T04:42:42.664Z,100.00
2022-10-03T04:45:36.529Z,100.00
2022-10-03T04:48:29.007Z,100.00
2022-10-03T04:51:12.853Z,100.00
2022-10-03T04:54:16.080Z,100.00
2022-10-03T04:56:52.128Z,100.00
2022-10-03T04:59:40.396Z,100.00
2022-10-03T05:02:43.398Z,100.00
2022-10-03T05:05:41.654Z,100.00
2022-10-03T05:08:07.988Z,100.00
2022-10-03T05:10:42.083Z,100.00
2022-10-03T05:13:32.703Z,100.00
2022-10-03T05:16:14.992Z,100.00
2022-10-03T05:19:06.017Z,100.00
2022-10-03T05:21:59.208Z,100.00
2022-10-03T05:24:50.586Z,100.00
2022-10-03T05:27:40.939Z,100.00
2022-10-03T05:30:25.496Z,100.00
2022-10-03T05:33:06.287Z,100.00
2022-10-03T05:35:40.821Z,100.00
2022-10-03T05:38:13.339Z,100.00
2022-10-03T05:40:50.270Z,100.00
2022-10-03T05:43:44.499Z,100.00
2022-10-03T05:46:43.320Z,100.00
2022-10-03T05:49:28.600Z,100.00
2022-10-03T05:52:13.746Z,100.00
2022-10-03T05:55:28.344Z,100.00
2022-10-03T05:58:33.868Z,100.00
2022-10-03T06:01:18.393Z,100.00
2022-10-03T06:04:16.289Z,100.00
2022-10-03T06:06:56.813Z,100.00
2022-10-03T06:09:44.249Z,100.00
2022-10-03T06:12:28.062Z,100.00
2022-10-03T06:15:14.390Z,100.00
2022-10-03T06:17:56.689Z,100.00
2022-10-03T06:20:38.562Z,100.00
2022-10-03T06:23:26.289Z,100.00
2022-10-03T06:26:07.138Z,100.00
2022-10-03T06:29:10.023Z,100.00
2022-10-03T06:32:07.547Z,100.00
2022-10-03T06:35:09.297Z,100.00
2022-10-03T06:38:06.978Z,100.00
2022-10-03T06:41:11.955Z,100.00
2022-10-03T06:43:48.981Z,100.00
2022-10-03T06:46:51.002Z,100.00
2022-10-03T06:49:54.240Z,100.00
2022-10-03T06:52:39.545Z,100.00
2022-10-03T06:55:15.151Z,100.00
2022-10-03T06:58:03.038Z,100.00
2022-10-03T07:00:49.864Z,100.00
2022-10-03T07:03:53.551Z,100.00
2022-10-03T07:06:20.206Z,100.00
2022-10-03T07:09:06.038Z,100.00
2022-10-03T07:11:39.946Z,100.00
2022-10-03T07:14:30.531Z,100.00
2022-10-03T07:17:39.053Z,100.00
2022-10-03T07:20:35.923Z,100.00
2022-10-03T07:23:27.216Z,100.00
2022-10-03T07:26:10.529Z,100.00
2022-10-03T07:29:01.773Z,100.00
2022-10-03T07:31:38.320Z,100.00
2022-10-03T07:34:40.507Z,100.00
2022-10-03T07:37:54.288Z,100.00
2022-10-03T07:40:44.819Z,100.00
2022-10-03T07:43:48.547Z,100.00
2022-10-03T07:46:51.135Z,100.00
2022-10-03T07:49:40.335Z,100.00
2022-10-03T07:52:31.799Z,100.00
2022-10-03T07:55:38.113Z,100.00
2022-10-03T07:58:26.277Z,100.00
2022-10-03T08:01:34.790Z,100.00
2022-10-03T08:04:19.885Z,100.00
2022-10-03T08:07:34.827Z,100.00
2022-10-03T08:10:09.320Z,100.00
2022-10-03T08:12:58.001Z,91.83
2022-10-03T08:16:21.973Z,89.79
2022-10-03T08:19:10.486Z,88.94
2022-10-03T08:21:49.279Z,84.36
2022-10-03T08:24:37.299Z,84.18
2022-10-03T08:27:36.890Z,86.65
2022-10-03T08:30:21.249Z,86.58
2022-10-03T08:33:04.403Z,84.23
2022-10-03T08:35:35.286Z,85.36
2022-10-03T08:38:10.650Z,88.09
2022-10-03T08:40:40.158Z,90.28
2022-10-03T08:43:38.750Z,86.99
2022-10-03T08:46:11.327Z,89.57
2022-10-03T08:48:46.946Z,89.65
2022-10-03T08:51:47.898Z,92.46
2022-10-03T08:54:37.299Z,91.25
2022-10-03T08:57:17.509Z,88.86
2022-10-03T09:00:16.550Z,88.05
2022-10-03T09:02:43.043Z,83.70
2022-10-03T09:05:27.855Z,85.08
2022-10-03T09:08:06.668Z,87.19
2022-10-03T09:10:54.417Z,87.21
2022-10-03T09:14:03.285Z,87.07
2022-10-03T09:17:00.309Z,87.18
2022-10-03T09:20:10.584Z,85.96
2022-10-03T09:22:55.685Z,86.54
2022-10-03T09:26:06.593Z,83.30
2022-10-03T09:29:14.900Z,84.72
2022-10-03T09:32:09.788Z,85.06
2022-10-03T09:35:13.655Z,85.32
2022-10-03T09:37:57.205Z,85.22
2022-10-03T09:40:41.878Z,83.27
2022-10-03T09:43:32.799Z,81.13
2022-10-03T09:46:24.231Z,81.28
2022-10-03T09:49:03.455Z,80.78
2022-10-03T09:52:11.403Z,77.33
2022-10-03T09:54:51.738Z,76.75
2022-10-03T09:57:38.878Z,77.10
2022-10-03T10:00:31.369Z,76.28
2022-10-03T10:03:14.947Z,76.02
2022-10-03T10:06:03.791Z,77.17
2022-10-03T10:09:05.246Z,76.58
2022-10-03T10:12:05.571Z,76.75
2022-10-03T10:14:56.760Z,77.62
2022-10-03T10:17:45.877Z,75.20
2022-10-03T10:20:23.837Z,74.37
2022-10-03T10:23:05.532Z,72.87
2022-10-03T10:25:38.227Z,74.81
2022-10-03T10:28:26.179Z,73.81
2022-10-03T10:30:58.681Z,71.57
2022-10-03T10:33:51.046Z,70.98
2022-10-03T10:36:42.503Z,69.36
2022-10-03T10:39:46.630Z,70.16
2022-10-03T10:42:44.055Z,67.37
2022-10-03T10:45:48.494Z,69.05
2022-10-03T10:48:52.580Z,68.84
2022-10-03T10:51:40.426Z,66.45
2022-10-03T10:54:38.525Z,69.33
2022-10-03T10:57:39.170Z,69.88
2022-10-03T11:00:21.297Z,71.29
2022-10-03T11:03:25.399Z,71.25
2022-10-03T11:06:19.992Z,70.11
2022-10-03T11:09:16.910Z,69.89
2022-10-03T11:11:58.592Z,70.75
2022-10-03T11:14:50.507Z,70.68
2022-10-03T11:17:41.875Z,70.86
2022-10-03T11:20:33.288Z,71.54
2022-10-03T11:23:18.420Z,72.12
2022-10-03T11:25:51.786Z,69.92
2022-10-03T11:28:30.320Z,69.45
2022-10-03T11:31:40.562Z,69.00
2022-10-03T11:34:22.154Z,68.36
2022-10-03T11:37:06.752Z,67.32
2022-10-03T11:40:05.270Z,69.10
2022-10-03T11:42:45.670Z,68.56
2022-10-03T11:45:25.993Z,68.42
2022-10-03T11:48:27.758Z,71.05
2022-10-03T11:50:57.897Z,67.26
2022-10-03T11:53:39.654Z,66.87
2022-10-03T11:56:18.295Z,65.99
2022-10-03T11:58:57.992Z,68.09
2022-10-03T12:01:34.126Z,69.07
2022-10-03T12:04:00.469Z,70.13
2022-10-03T12:07:08.892Z,70.18
2022-10-03T12:09:54.085Z,68.51
2022-10-03T12:12:36.699Z,68.00
2022-10-03T12:15:15.991Z,68.29
2022-10-03T12:17:51.177Z,66.78
2022-10-03T12:20:22.907Z,65.69
2022-10-03T12:22:58.372Z,66.18
2022-10-03T12:25:31.969Z,63.82
2022-10-03T12:28:18.026Z,63.77
2022-10-03T12:30:55.225Z,65.15
2022-10-03T12:33:43.442Z,64.71
2022-10-03T12:36:17.899Z,63.85
2022-10-03T12:38:57.952Z,64.26
2022-10-03T12:41:46.251Z,65.43
2022-10-03T12:44:40.790Z,63.60
2022-10-03T12:47:54.183Z,64.14
2022-10-03T12:50:37.288Z,64.56
2022-10-03T12:53:16.035Z,64.40
2022-10-03T12:56:04.445Z,64.69
2022-10-03T12:58:49.613Z,64.79
2022-10-03T13:01:21.197Z,63.72
2022-10-03T13:03:53.759Z,63.28
2022-10-03T13:07:02.779Z,63.42
2022-10-03T13:10:00.944Z,63.39
2022-10-03T13:12:54.785Z,64.34
2022-10-03T13:15:40.378Z,64.68
2022-10-03T13:18:14.790Z,64.37
2022-10-03T13:20:49.507Z,65.04
2022-10-03T13:23:28.178Z,63.60
2022-10-03T13:26:17.423Z,63.35
2022-10-03T13:28:50.706Z,64.14
2022-10-03T13:31:25.146Z,64.17
2022-10-03T13:33:56.081Z,62.07
2022-10-03T13:36:55.460Z,62.13
2022-10-03T13:39:42.464Z,63.29
2022-10-03T13:42:31.691Z,63.87
2022-10-03T13:45:06.720Z,63.89
2022-10-03T13:47:43.424Z,65.31
2022-10-03T13:50:22.450Z,64.78
2022-10-03T13:52:57.035Z,64.35
2022-10-03T13:55:42.213Z,64.59
2022-10-03T13:58:26.260Z,66.63
2022-10-03T14:01:11.614Z,67.50
2022-10-03T14:04:11.008Z,66.03
2022-10-03T14:06:51.253Z,63.43
2022-10-03T14:09:20.692Z,62.25
2022-10-03T14:12:06.944Z,63.39
2022-10-03T14:14:52.464Z,64.10
2022-10-03T14:17:32.130Z,65.30
2022-10-03T14:20:16.974Z,65.50
2022-10-03T14:22:46.433Z,66.31
2022-10-03T14:25:35.247Z,67.56
2022-10-03T14:28:14.516Z,67.92
2022-10-03T14:31:06.650Z,66.29
2022-10-03T14:33:48.677Z,67.94
2022-10-03T14:36:39.270Z,68.25
2022-10-03T14:39:36.868Z,68.33
2022-10-03T14:42:25.117Z,66.14
2022-10-03T14:44:58.452Z,66.53
2022-10-03T14:47:26.250Z,66.82
2022-10-03T14:49:59.548Z,67.20
2022-10-03T14:52:29.573Z,67.55
2022-10-03T14:55:02.801Z,67.49
2022-10-03T14:57:59.047Z,66.79
2022-10-03T15:00:38.953Z,67.92
2022-10-03T15:03:17.644Z,67.50
2022-10-03T15:06:10.566Z,67.97
2022-10-03T15:08:43.189Z,68.22
2022-10-03T15:11:13.889Z,66.85
2022-10-03T15:13:56.788Z,66.51
2022-10-03T15:16:24.687Z,65.54
2022-10-03T15:19:09.831Z,67.38
2022-10-03T15:21:38.068Z,67.77
2022-10-03T15:24:07.729Z,67.98
2022-10-03T15:26:37.327Z,68.14
2022-10-03T15:29:06.733Z,68.23
2022-10-03T15:31:37.016Z,68.41
2022-10-03T15:34:07.348Z,69.49
2022-10-03T15:36:40.105Z,70.28
2022-10-03T15:39:17.854Z,69.40
2022-10-03T15:41:54.807Z,69.29
2022-10-03T15:44:32.888Z,69.78
2022-10-03T15:47:06.283Z,68.85
2022-10-03T15:49:38.555Z,67.11
2022-10-03T15:52:17.153Z,68.61
2022-10-03T15:55:12.606Z,69.04
2022-10-03T15:57:46.681Z,69.98
2022-10-03T16:00:28.728Z,70.79
2022-10-03T16:03:28.833Z,71.62
2022-10-03T16:06:22.102Z,72.95
2022-10-03T16:09:22.675Z,71.36
2022-10-03T16:12:07.033Z,72.06
2022-10-03T16:14:44.719Z,73.73
2022-10-03T16:17:20.388Z,76.71
2022-10-03T16:19:58.495Z,77.71
2022-10-03T16:23:06.099Z,77.51
2022-10-03T16:25:44.027Z,79.69
2022-10-03T16:28:17.607Z,79.00
2022-10-03T16:30:52.329Z,78.60
2022-10-03T16:33:33.125Z,79.39
2022-10-03T16:36:05.660Z,79.38
2022-10-03T16:38:40.651Z,82.53
2022-10-03T16:41:28.409Z,81.62
2022-10-03T16:44:02.576Z,83.36
2022-10-03T16:46:33.908Z,84.66
2022-10-03T16:49:21.842Z,84.72
2022-10-03T16:52:08.154Z,86.03
2022-10-03T16:54:35.487Z,86.12
2022-10-03T16:57:09.392Z,84.45
2022-10-03T16:59:37.975Z,86.87
2022-10-03T17:02:14.225Z,87.66
2022-10-03T17:04:46.065Z,88.60
2022-10-03T17:07:18.730Z,88.69
2022-10-03T17:09:47.645Z,90.06
2022-10-03T17:12:18.687Z,91.06
2022-10-03T17:14:45.596Z,91.30
2022-10-03T17:17:45.031Z,92.10
2022-10-03T17:20:29.703Z,91.93
2022-10-03T17:23:04.372Z,91.87
2022-10-03T17:25:50.169Z,91.89
2022-10-03T17:28:44.458Z,92.79
2022-10-03T17:31:22.635Z,91.93
2022-10-03T17:34:10.145Z,91.96
2022-10-03T17:37:07.602Z,93.22
2022-10-03T17:39:56.835Z,93.28
2022-10-03T17:42:44.925Z,92.92
2022-10-03T17:45:14.056Z,94.11
2022-10-03T17:47:52.644Z,94.40
2022-10-03T17:50:41.339Z,92.99
2022-10-03T17:53:18.754Z,92.42
2022-10-03T17:55:46.343Z,94.22
2022-10-03T17:58:17.157Z,94.56
2022-10-03T18:00:46.447Z,94.49
2022-10-03T18:03:25.876Z,94.87
2022-10-03T18:05:58.045Z,95.50
2022-10-03T18:08:30.151Z,94.14
2022-10-03T18:10:58.780Z,94.92
2022-10-03T18:13:50.554Z,94.00
2022-10-03T18:16:34.677Z,95.27
2022-10-03T18:19:31.698Z,95.89
2022-10-03T18:22:07.254Z,96.06
2022-10-03T18:25:28.800Z,96.76
2022-10-03T18:28:13.500Z,97.68
2022-10-03T18:30:46.326Z,98.00
2022-10-03T18:33:21.291Z,98.00
2022-10-03T18:35:49.600Z,98.01
2022-10-03T18:38:19.422Z,98.38
2022-10-03T18:40:56.665Z,98.81
2022-10-03T18:43:27.203Z,98.41
2022-10-03T18:46:00.224Z,98.71
2022-10-03T18:48:36.142Z,98.97
2022-10-03T18:51:24.365Z,99.03
2022-10-03T18:54:04.061Z,99.64
2022-10-03T18:56:31.607Z,99.57
2022-10-03T18:59:15.021Z,99.29
2022-10-03T19:01:55.773Z,100.00
2022-10-03T19:04:36.928Z,100.00
2022-10-03T19:07:22.365Z,100.00
2022-10-03T19:10:14.414Z,100.00
2022-10-03T19:12:47.218Z,100.00
2022-10-03T19:16:01.958Z,100.00
2022-10-03T19:18:41.269Z,100.00
2022-10-03T19:21:18.822Z,100.00
2022-10-03T19:23:51.443Z,100.00
2022-10-03T19:26:27.403Z,100.00
2022-10-03T19:29:02.224Z,100.00
2022-10-03T19:31:56.032Z,100.00
2022-10-03T19:34:44.621Z,100.00
2022-10-03T19:37:44.552Z,100.00
2022-10-03T19:40:36.920Z,100.00
2022-10-03T19:43:25.601Z,100.00
2022-10-03T19:46:16.995Z,100.00
2022-10-03T19:49:09.503Z,100.00
2022-10-03T19:51:36.108Z,100.00
2022-10-03T19:54:12.684Z,100.00
2022-10-03T19:56:39.437Z,100.00
2022-10-03T19:59:13.811Z,100.00
2022-10-03T20:01:49.284Z,100.00
2022-10-03T20:04:32.152Z,100.00
2022-10-03T20:06:59.293Z,100.00
2022-10-03T20:09:31.201Z,100.00
2022-10-03T20:12:06.266Z,100.00
2022-10-03T20:14:37.083Z,100.00
2022-10-03T20:17:14.927Z,100.00
2022-10-03T20:19:58.085Z,100.00
2022-10-03T20:22:28.183Z,100.00
2022-10-03T20:24:55.304Z,100.00
2022-10-03T20:27:36.510Z,100.00
2022-10-03T20:30:05.707Z,100.00
2022-10-03T20:32:35.475Z,100.00
2022-10-03T20:35:02.032Z,100.00
2022-10-03T20:37:49.290Z,100.00
2022-10-03T20:40:21.696Z,100.00
2022-10-03T20:42:51.596Z,100.00
2022-10-03T20:45:25.490Z,100.00
2022-10-03T20:48:02.742Z,100.00
2022-10-03T20:50:36.911Z,100.00
2022-10-03T20:53:13.122Z,100.00
2022-10-03T20:56:08.127Z,100.00
2022-10-03T20:58:53.274Z,100.00
2022-10-03T21:01:25.601Z,100.00
2022-10-03T21:04:10.965Z,100.00
2022-10-03T21:07:02.107Z,100.00
2022-10-03T21:09:43.527Z,100.00
2022-10-03T21:12:25.784Z,100.00
2022-10-03T21:14:57.832Z,100.00
2022-10-03T21:17:27.200Z,100.00
2022-10-03T21:19:58.841Z,100.00
2022-10-03T21:22:29.371Z,100.00
2022-10-03T21:25:03.768Z,100.00
2022-10-03T21:27:32.119Z,100.00
2022-10-03T21:30:02.061Z,100.00
2022-10-03T21:32:47.275Z,100.00
2022-10-03T21:35:32.363Z,100.00
2022-10-03T21:38:01.793Z,100.00
2022-10-03T21:40:48.059Z,100.00
2022-10-03T21:43:14.423Z,100.00
2022-10-03T21:45:49.942Z,100.00
2022-10-03T21:48:55.467Z,100.00
2022-10-03T21:51:48.617Z,100.00
2022-10-03T21:54:44.001Z,100.00
2022-10-03T21:57:29.233Z,100.00
2022-10-03T22:00:09.462Z,100.00
2022-10-03T22:02:44.341Z,100.00
2022-10-03T22:05:41.977Z,100.00
2022-10-03T22:08:24.970Z,100.00
2022-10-03T22:11:12.562Z,100.00
2022-10-03T22:13:43.717Z,100.00
2022-10-03T22:16:22.383Z,100.00
2022-10-03T22:19:14.859Z,100.00
2022-10-03T22:21:58.569Z,100.00
2022-10-03T22:25:04.210Z,100.00
2022-10-03T22:27:48.673Z,100.00
2022-10-03T22:30:18.411Z,100.00
2022-10-03T22:33:09.737Z,100.00
2022-10-03T22:35:59.379Z,100.00
2022-10-03T22:38:32.054Z,100.00
2022-10-03T22:41:02.941Z,100.00
2022-10-03T22:43:30.266Z,100.00
2022-10-03T22:45:58.620Z,100.00
2022-10-03T22:48:31.039Z,100.00
2022-10-03T22:51:00.293Z,100.00
2022-10-03T22:53:32.148Z,100.00
2022-10-03T22:56:00.022Z,100.00
2022-10-03T22:58:29.419Z,100.00
2022-10-03T23:00:59.560Z,100.00
2022-10-03T23:03:32.471Z,100.00
2022-10-03T23:06:31.447Z,100.00
2022-10-03T23:09:19.148Z,100.00
2022-10-03T23:11:49.504Z,100.00
2022-10-03T23:14:23.646Z,100.00
2022-10-03T23:17:26.021Z,100.00
2022-10-03T23:20:39.753Z,100.00
2022-10-03T23:23:25.599Z,100.00
2022-10-03T23:26:05.499Z,100.00
2022-10-03T23:28:51.742Z,100.00
2022-10-03T23:31:55.156Z,100.00
2022-10-03T23:34:36.519Z,100.00
2022-10-03T23:37:15.035Z,100.00
2022-10-03T23:39:42.828Z,100.00
2022-10-03T23:42:19.857Z,100.00
2022-10-03T23:44:54.443Z,100.00
2022-10-03T23:47:27.637Z,100.00
2022-10-03T23:49:54.701Z,100.00
2022-10-03T23:52:27.100Z,100.00
2022-10-03T23:54:58.342Z,100.00
2022-10-03T23:57:35.043Z,100.00
